Latest Coastal Weather Observations for Green Cape

IDN60701

Issued at 11:41 am EDT Tuesday 6 December 2016 (issued every 10 minutes, with the page automatically refreshed every 10 minutes)

About coastal observations | Map of coastal stations | Coastal observations for NSW | Marine services | Other Formats
Station Details ID: 069137 Name: GREEN CAPE AWS Lat: -37.26 Lon: 150.05 Height: 19.4 m
Data from the previous 72 hours. | See also: Recent months at Green Cape
Date/Time
EDT
Temp
°C
Wind Pressure Rain since
9am
mm
Weather Cloud Vis
km
Sea
Height
m
Swell
Dir  Spd
kts
Gust
kts
hPa Trend Height
m
Period
s
Dir
06/11:30am 18.1 SSW 9 11 1012.1 - 0.0 - - - - - - -
06/11:00am 18.2 SSW 9 11 1012.1 - 0.0 - - - - - - -
06/10:30am 18.1 SSW 7 8 1011.9 - 0.0 - - - - - - -
06/10:00am 17.6 SW 5 5 1011.9 - 0.0 - - - - - - -
06/09:30am 17.4 WSW 4 5 1012.2 - 0.0 - - - - - - -
06/09:00am 17.2 W 3 4 1011.9 - 0.8 - - - - - - -
06/08:30am 16.7 CALM 0 0 1011.4 - 0.8 - - - - - - -
06/08:00am 16.3 W 4 5 1011.9 - 0.8 - - - - - - -
06/07:30am 16.3 CALM 0 1 1011.5 - 0.8 - - - - - - -
06/07:00am 16.0 WNW 3 4 1011.4 - 0.8 - - - - - - -
06/06:30am 16.1 W 4 5 1011.7 - 0.8 - - - - - - -
06/06:00am 16.2 W 4 4 1011.3 - 0.6 - - - - - - -
06/05:30am 16.0 WNW 2 3 1011.1 - 0.6 - - - - - - -
06/05:00am 15.9 WNW 3 3 1011.1 - 0.6 - - - - - - -
06/04:30am 15.8 WNW 2 3 1011.1 - 0.6 - - - - - - -
06/04:00am 16.3 W 2 3 1011.7 - 0.6 - - - - - - -
06/03:30am 16.4 SSW 3 5 1012.3 - 0.6 - - - - - - -
06/03:00am 16.4 NNE 1 3 1012.4 - 0.6 - - - - - - -
06/02:30am 16.3 CALM 0 0 1013.0 - 0.6 - - - - - - -
06/02:00am 16.3 CALM 0 1 1013.1 - 0.6 - - - - - - -
06/01:30am 16.4 SW 3 5 1013.3 - 0.6 - - - - - - -
06/01:00am 16.5 S 5 8 1013.2 - 0.6 - - - - - - -
06/12:30am 16.8 SSW 10 13 1014.1 - 0.6 - - - - - - -
06/12:00am 16.6 SSW 5 7 1014.4 - 0.6 - - - - - - -
 
Date/Time
EDT
Temp
°C
Wind Pressure Rain since
9am
mm
Weather Cloud Vis
km
Sea
Height
m
Swell
Dir  Spd
kts
Gust
kts
hPa Trend Height
m
Period
s
Dir
05/11:30pm 16.4 SSW 3 5 1014.2 - 0.6 - - - - - - -
05/11:00pm 16.5 SSW 7 9 1014.2 - 0.6 - - - - - - -
05/10:30pm 16.4 SSW 5 7 1014.1 - 0.6 - - - - - - -
05/10:00pm 16.3 SSW 7 9 1014.1 - 0.6 - - - - - - -
05/09:30pm 16.4 SSW 10 12 1014.2 - 0.6 - - - - - - -
05/09:00pm 16.5 SSW 13 15 1013.1 - 0.6 - - - - - - -
05/08:30pm 16.4 SSW 16 18 1013.3 - 0.6 - - - - - - -
05/08:00pm 16.4 SSW 20 23 1013.1 - 0.6 - - - - - - -
05/07:30pm 15.8 SSW 16 18 1013.0 - 0.6 - - - - - - -
05/07:00pm 15.9 SSW 13 15 1012.9 - 0.6 - - - - - - -
05/06:30pm 15.9 SSW 22 27 1012.1 - 0.4 - - - - - - -
05/06:00pm 16.3 S 23 27 1010.8 - 0.2 - - - - - - -
05/05:30pm 17.3 SSW 26 29 1011.1 - 0.2 - - - - - - -
05/05:00pm 17.8 S 25 28 1009.9 - 0.2 - - - - - - -
05/04:30pm 18.1 S 27 31 1009.6 - 0.2 - - - - - - -
05/04:00pm 18.7 S 28 31 1009.5 - 0.2 - - - - - - -
05/03:30pm 19.3 S 29 34 1009.2 - 0.2 - - - - - - -
05/03:00pm 19.2 S 28 31 1009.1 - 0.2 - - - - - - -
05/02:30pm 19.9 S 28 31 1008.7 - 0.2 - - - - - - -
05/02:00pm 19.9 S 27 31 1008.4 - 0.2 - - - - - - -
05/01:30pm 20.7 S 24 27 1008.5 - 0.2 - - - - - - -
05/01:00pm 20.3 S 25 28 1008.3 - 0.2 - - - - - - -
05/12:30pm 20.7 S 24 29 1008.3 - 0.2 - - - - - - -
05/12:00pm 21.7 S 21 28 1008.1 - 0.2 - - - - - - -
05/11:50am 22.5 ENE 10 23 1008.5 - 0.2 - - - - - - -
05/11:30am 22.8 N 10 11 1007.0 - 0.2 - - - - - - -
05/11:00am 23.3 N 9 10 1007.0 - 0.2 - - - - - - -
05/10:30am 21.7 N 7 10 1007.2 - 0.2 - - - - - - -
05/10:00am 22.2 NNE 7 8 1007.4 - 0.2 - - - - - - -
05/09:30am 21.3 N 13 14 1007.2 - 0.0 - - - - - - -
05/09:00am 20.2 N 13 14 1007.3 - 10.4 - - - - - - -
05/08:30am 20.0 N 11 13 1007.5 - 10.4 - - - - - - -
05/08:00am 20.3 N 16 18 1007.3 - 10.4 - - - - - - -
05/07:30am 20.1 NNE 14 16 1007.3 - 10.4 - - - - - - -
05/07:00am 20.0 N 14 16 1007.1 - 10.4 - - - - - - -
05/06:30am 19.8 N 16 19 1007.1 - 10.4 - - - - - - -
05/06:00am 19.8 NNE 21 25 1006.9 - 10.4 - - - - - - -
05/05:30am 19.8 NNE 23 27 1006.4 - 10.4 - - - - - - -
05/05:00am 19.9 NNE 22 26 1006.7 - 10.4 - - - - - - -
05/04:30am 19.8 NNE 27 31 1006.5 - 9.6 - - - - - - -
05/04:14am 19.7 N 20 25 1008.2 - 7.2 - - - - - - -
05/04:00am 19.5 N 12 15 1009.3 - 6.4 - - - - - - -
05/03:30am 19.4 N 9 11 1008.5 - 5.4 - - - - - - -
05/03:00am 19.4 N 9 11 1008.6 - 5.2 Recent precip. - - - - - -
05/02:30am 19.6 N 13 15 1008.9 - 5.2 - - - - - - -
05/02:00am 19.7 N 14 16 1009.8 - 4.4 - - - - - - -
05/01:30am 19.7 N 16 17 1009.8 - 3.6 - - - - - - -
05/01:00am 20.0 N 16 21 1009.8 - 3.0 - - - - - - -
05/12:30am 19.8 N 11 13 1010.2 - 2.6 - - - - - - -
05/12:00am 19.6 N 11 12 1010.1 - 2.4 Recent precip. - - - - - -
 
Date/Time
EDT
Temp
°C
Wind Pressure Rain since
9am
mm
Weather Cloud Vis
km
Sea
Height
m
Swell
Dir  Spd
kts
Gust
kts
hPa Trend Height
m
Period
s
Dir
04/11:30pm 19.6 N 14 16 1010.4 - 2.2 - - - - - - -
04/11:00pm 19.7 N 17 18 1010.7 - 1.8 - - - - - - -
04/10:30pm 20.0 N 17 19 1011.1 - 0.8 - - - - - - -
04/10:00pm 20.3 NNE 21 23 1010.8 - 0.2 - - - - - - -
04/09:30pm 20.5 NNE 21 23 1010.7 - 0.2 - - - - - - -
04/09:00pm 20.6 NNE 20 23 1010.2 - 0.2 - - - - - - -
04/08:30pm 20.7 N 24 27 1010.0 - 0.2 - - - - - - -
04/08:00pm 20.7 NNE 23 26 1009.9 - 0.2 - - - - - - -
04/07:30pm 20.8 NNE 20 23 1010.0 - 0.2 - - - - - - -
04/07:00pm 21.0 NNE 19 20 1010.3 - 0.2 - - - - - - -
04/06:30pm 21.3 NNE 17 18 1010.5 - 0.2 - - - - - - -
04/06:00pm 21.7 NNE 17 20 1010.4 - 0.2 - - - - - - -
04/05:30pm 21.5 NNE 17 19 1010.3 - 0.2 - - - - - - -
04/05:00pm 21.7 NNE 18 20 1010.6 - 0.2 - - - - - - -
04/04:30pm 22.1 NNE 18 20 1010.9 - 0.2 - - - - - - -
04/04:00pm 22.5 NNE 19 21 1011.2 - 0.2 - - - - - - -
04/03:30pm 22.5 NNE 18 20 1011.4 - 0.2 - - - - - - -
04/03:00pm 23.4 NNE 17 19 1011.5 - 0.2 - - - - - - -
04/02:30pm 22.7 N 18 19 1011.9 - 0.2 - - - - - - -
04/02:00pm 22.9 NNE 17 19 1011.8 - 0.2 - - - - - - -
04/01:30pm 23.5 NNE 18 20 1012.1 - 0.2 - - - - - - -
04/01:00pm 23.0 NNE 18 19 1012.7 - 0.2 - - - - - - -
04/12:30pm 23.1 NNE 18 20 1012.9 - 0.2 - - - - - - -
04/12:00pm 22.8 N 16 18 1013.3 - 0.2 Recent precip. - - - - - -
04/11:30am 22.0 N 17 19 1013.4 - 0.2 - - - - - - -
04/11:00am 21.7 N 17 19 1013.8 - 0.0 - - - - - - -
04/10:30am 21.2 N 16 18 1013.9 - 0.0 - - - - - - -
04/10:00am 21.0 NNE 16 17 1014.3 - 0.0 - - - - - - -
04/09:30am 20.3 N 16 18 1014.4 - 0.0 - - - - - - -
04/09:00am 20.6 N 14 16 1014.7 - 0.0 - - - - - - -
04/08:30am 20.5 N 11 13 1015.0 - 0.0 - - - - - - -
04/08:00am 19.7 NNE 9 11 1014.9 - 0.0 - - - - - - -
04/07:30am 18.9 N 8 10 1015.5 - 0.0 - - - - - - -
04/07:00am 18.0 N 8 10 1015.3 - 0.0 - - - - - - -
04/06:30am 17.2 N 9 10 1015.1 - 0.0 - - - - - - -
04/06:00am 16.7 NNW 5 8 1014.9 - 0.0 - - - - - - -
04/05:30am 16.7 N 5 7 1014.7 - 0.0 - - - - - - -
04/05:00am 16.9 N 6 8 1014.6 - 0.0 - - - - - - -
04/04:30am 17.0 N 4 6 1015.0 - 0.0 - - - - - - -
04/04:00am 17.2 N 5 6 1015.0 - 0.0 - - - - - - -
04/03:30am 17.2 N 4 6 1015.2 - 0.0 - - - - - - -
04/03:00am 17.2 N 5 6 1015.2 - 0.0 - - - - - - -
04/02:30am 17.3 N 4 6 1015.6 - 0.0 - - - - - - -
04/02:00am 17.6 N 4 5 1016.1 - 0.0 - - - - - - -
04/01:30am 17.5 NNW 3 5 1016.2 - 0.0 - - - - - - -
04/01:00am 17.2 W 3 3 1016.6 - 0.0 - - - - - - -
04/12:30am 17.4 CALM 0 0 1016.6 - 0.0 - - - - - - -
04/12:00am 17.2 CALM 0 0 1016.7 - 0.0 - - - - - - -
 
Date/Time
EDT
Temp
°C
Wind Pressure Rain since
9am
mm
Weather Cloud Vis
km
Sea
Height
m
Swell
Dir  Spd
kts
Gust
kts
hPa Trend Height
m
Period
s
Dir
03/11:30pm 17.1 WNW 1 2 1016.8 - 0.0 - - - - - - -
03/11:00pm 17.2 W 3 3 1017.0 - 0.0 - - - - - - -
03/10:30pm 17.3 W 3 4 1017.1 - 0.0 - - - - - - -
03/10:00pm 17.2 W 3 5 1017.1 - 0.0 - - - - - - -
03/09:30pm 17.3 W 5 6 1017.1 - 0.0 - - - - - - -
03/09:00pm 17.2 W 4 5 1016.9 - 0.0 - - - - - - -
03/08:30pm 17.2 W 2 3 1016.6 - 0.0 - - - - - - -
03/08:00pm 17.4 CALM 0 2 1016.7 - 0.0 - - - - - - -
03/07:30pm 17.8 NNE 2 3 1016.7 - 0.0 - - - - - - -
03/07:00pm 18.2 ENE 5 7 1016.3 - 0.0 - - - - - - -
03/06:30pm 18.3 E 5 7 1016.0 - 0.0 - - - - - - -
03/06:00pm 18.4 E 4 7 1015.8 - 0.0 - - - - - - -
03/05:30pm 18.5 SE 6 8 1015.6 - 0.0 - - - - - - -
03/05:00pm 18.6 SE 6 8 1015.6 - 0.0 - - - - - - -
03/04:30pm 18.8 SE 6 8 1015.8 - 0.0 - - - - - - -
03/04:00pm 18.9 SE 6 8 1015.9 - 0.0 - - - - - - -
03/03:30pm 19.1 ESE 5 7 1016.0 - 0.0 - - - - - - -
03/03:00pm 19.7 ESE 4 6 1016.2 - 0.0 - - - - - - -
03/02:30pm 20.0 E 5 7 1016.3 - 0.0 - - - - - - -
03/02:00pm 20.1 E 4 6 1016.3 - 0.0 - - - - - - -
03/01:30pm 19.9 E 3 5 1016.5 - 0.0 - - - - - - -
03/01:00pm 20.0 ESE 4 7 1016.6 - 0.0 - - - - - - -
03/12:30pm 19.2 E 4 6 1016.7 - 0.0 - - - - - - -
03/12:00pm 18.4 E 4 6 1016.8 - 0.0 - - - - - - -

Other Formats:

Comma delimited format used in spreadsheet applications
http://www.bom.gov.au/fwo/IDN60701/IDN60701.94934.axf

JavaScript Object Notation format (JSON) in row-major order
http://www.bom.gov.au/fwo/IDN60701/IDN60701.94934.json